sensor_id;sensor_type;location;lat;lon;timestamp;P1;durP1;ratioP1;P2;durP2;ratioP2
41693;SDS011;27377;50.666;9.150;2024-03-08T00:00:51;28.05;;;19.02;;
41693;SDS011;27377;50.666;9.150;2024-03-08T00:03:35;29.10;;;19.37;;
41693;SDS011;27377;50.666;9.150;2024-03-08T00:06:19;30.42;;;20.17;;
41693;SDS011;27377;50.666;9.150;2024-03-08T00:09:03;30.80;;;20.30;;
41693;SDS011;27377;50.666;9.150;2024-03-08T00:11:47;30.48;;;20.23;;
41693;SDS011;27377;50.666;9.150;2024-03-08T00:14:34;32.08;;;20.48;;
41693;SDS011;27377;50.666;9.150;2024-03-08T00:17:18;30.05;;;19.83;;
41693;SDS011;27377;50.666;9.150;2024-03-08T00:20:02;29.42;;;19.85;;
41693;SDS011;27377;50.666;9.150;2024-03-08T00:22:52;29.10;;;19.67;;
41693;SDS011;27377;50.666;9.150;2024-03-08T00:25:36;28.85;;;19.98;;
41693;SDS011;27377;50.666;9.150;2024-03-08T00:28:20;30.67;;;19.95;;
41693;SDS011;27377;50.666;9.150;2024-03-08T00:31:04;32.00;;;20.53;;
41693;SDS011;27377;50.666;9.150;2024-03-08T00:33:50;32.10;;;20.67;;
41693;SDS011;27377;50.666;9.150;2024-03-08T00:36:34;29.87;;;20.67;;
41693;SDS011;27377;50.666;9.150;2024-03-08T00:39:18;30.63;;;19.98;;
41693;SDS011;27377;50.666;9.150;2024-03-08T00:42:06;28.23;;;19.55;;
41693;SDS011;27377;50.666;9.150;2024-03-08T00:44:50;29.70;;;20.35;;
41693;SDS011;27377;50.666;9.150;2024-03-08T00:47:34;31.10;;;20.15;;
41693;SDS011;27377;50.666;9.150;2024-03-08T00:50:18;30.73;;;20.40;;
41693;SDS011;27377;50.666;9.150;2024-03-08T00:53:02;29.88;;;20.10;;
41693;SDS011;27377;50.666;9.150;2024-03-08T00:55:48;30.10;;;20.58;;
41693;SDS011;27377;50.666;9.150;2024-03-08T00:58:32;29.87;;;20.30;;
41693;SDS011;27377;50.666;9.150;2024-03-08T01:01:18;32.97;;;20.65;;
41693;SDS011;27377;50.666;9.150;2024-03-08T01:04:02;28.95;;;20.42;;
41693;SDS011;27377;50.666;9.150;2024-03-08T01:06:47;31.58;;;20.65;;
41693;SDS011;27377;50.666;9.150;2024-03-08T01:09:30;31.25;;;20.98;;
41693;SDS011;27377;50.666;9.150;2024-03-08T01:12:15;30.27;;;20.90;;
41693;SDS011;27377;50.666;9.150;2024-03-08T01:14:59;36.47;;;21.40;;
41693;SDS011;27377;50.666;9.150;2024-03-08T01:17:43;31.33;;;21.33;;
41693;SDS011;27377;50.666;9.150;2024-03-08T01:20:27;33.70;;;21.30;;
41693;SDS011;27377;50.666;9.150;2024-03-08T01:23:11;32.45;;;21.33;;
41693;SDS011;27377;50.666;9.150;2024-03-08T01:25:55;34.07;;;21.60;;
41693;SDS011;27377;50.666;9.150;2024-03-08T01:28:43;33.13;;;21.90;;
41693;SDS011;27377;50.666;9.150;2024-03-08T01:31:27;33.88;;;21.95;;
41693;SDS011;27377;50.666;9.150;2024-03-08T01:34:12;33.05;;;21.63;;
41693;SDS011;27377;50.666;9.150;2024-03-08T01:36:56;32.57;;;21.87;;
41693;SDS011;27377;50.666;9.150;2024-03-08T01:39:41;35.63;;;23.27;;
41693;SDS011;27377;50.666;9.150;2024-03-08T01:42:26;35.33;;;23.17;;
41693;SDS011;27377;50.666;9.150;2024-03-08T01:45:10;34.45;;;23.35;;
41693;SDS011;27377;50.666;9.150;2024-03-08T01:47:54;33.38;;;22.58;;
41693;SDS011;27377;50.666;9.150;2024-03-08T01:50:38;34.78;;;23.27;;
41693;SDS011;27377;50.666;9.150;2024-03-08T01:53:26;36.38;;;23.45;;
41693;SDS011;27377;50.666;9.150;2024-03-08T01:56:12;35.47;;;24.00;;
41693;SDS011;27377;50.666;9.150;2024-03-08T01:58:57;35.05;;;23.67;;
41693;SDS011;27377;50.666;9.150;2024-03-08T02:01:43;38.08;;;23.67;;
41693;SDS011;27377;50.666;9.150;2024-03-08T02:04:27;37.17;;;24.15;;
41693;SDS011;27377;50.666;9.150;2024-03-08T02:07:14;35.78;;;23.90;;
41693;SDS011;27377;50.666;9.150;2024-03-08T02:09:58;35.25;;;24.10;;
41693;SDS011;27377;50.666;9.150;2024-03-08T02:12:42;37.03;;;23.80;;
41693;SDS011;27377;50.666;9.150;2024-03-08T02:15:43;35.08;;;22.85;;
41693;SDS011;27377;50.666;9.150;2024-03-08T02:18:44;35.03;;;23.38;;
41693;SDS011;27377;50.666;9.150;2024-03-08T02:21:28;33.53;;;22.25;;
41693;SDS011;27377;50.666;9.150;2024-03-08T02:24:13;32.58;;;22.38;;
41693;SDS011;27377;50.666;9.150;2024-03-08T02:26:57;31.58;;;21.88;;
41693;SDS011;27377;50.666;9.150;2024-03-08T02:29:41;34.60;;;23.05;;
41693;SDS011;27377;50.666;9.150;2024-03-08T02:32:27;34.70;;;23.08;;
41693;SDS011;27377;50.666;9.150;2024-03-08T02:35:11;32.75;;;21.90;;
41693;SDS011;27377;50.666;9.150;2024-03-08T02:37:55;32.38;;;21.60;;
41693;SDS011;27377;50.666;9.150;2024-03-08T02:40:40;33.53;;;22.02;;
41693;SDS011;27377;50.666;9.150;2024-03-08T02:43:24;32.72;;;22.40;;
41693;SDS011;27377;50.666;9.150;2024-03-08T02:46:08;33.17;;;22.50;;
41693;SDS011;27377;50.666;9.150;2024-03-08T02:48:53;35.03;;;22.95;;
41693;SDS011;27377;50.666;9.150;2024-03-08T02:51:37;33.47;;;22.70;;
41693;SDS011;27377;50.666;9.150;2024-03-08T02:54:22;32.03;;;21.50;;
41693;SDS011;27377;50.666;9.150;2024-03-08T02:57:07;33.30;;;22.80;;
41693;SDS011;27377;50.666;9.150;2024-03-08T02:59:51;32.50;;;21.93;;
41693;SDS011;27377;50.666;9.150;2024-03-08T03:02:37;33.55;;;22.40;;
41693;SDS011;27377;50.666;9.150;2024-03-08T03:05:21;35.07;;;22.63;;
41693;SDS011;27377;50.666;9.150;2024-03-08T03:08:05;34.65;;;22.30;;
41693;SDS011;27377;50.666;9.150;2024-03-08T03:10:52;34.37;;;22.93;;
41693;SDS011;27377;50.666;9.150;2024-03-08T03:13:36;34.10;;;22.75;;
41693;SDS011;27377;50.666;9.150;2024-03-08T03:16:21;35.42;;;23.25;;
41693;SDS011;27377;50.666;9.150;2024-03-08T03:19:05;35.43;;;23.57;;
41693;SDS011;27377;50.666;9.150;2024-03-08T03:21:49;36.47;;;23.60;;
41693;SDS011;27377;50.666;9.150;2024-03-08T03:24:33;35.77;;;22.87;;
41693;SDS011;27377;50.666;9.150;2024-03-08T03:27:17;38.22;;;23.95;;
41693;SDS011;27377;50.666;9.150;2024-03-08T03:30:02;34.97;;;23.13;;
41693;SDS011;27377;50.666;9.150;2024-03-08T03:33:04;40.05;;;23.73;;
41693;SDS011;27377;50.666;9.150;2024-03-08T03:35:51;33.92;;;23.77;;
41693;SDS011;27377;50.666;9.150;2024-03-08T03:38:35;36.20;;;23.27;;
41693;SDS011;27377;50.666;9.150;2024-03-08T03:41:19;35.78;;;23.67;;
41693;SDS011;27377;50.666;9.150;2024-03-08T03:44:04;36.00;;;23.17;;
41693;SDS011;27377;50.666;9.150;2024-03-08T03:46:50;33.38;;;22.63;;
41693;SDS011;27377;50.666;9.150;2024-03-08T03:49:37;35.97;;;23.57;;
41693;SDS011;27377;50.666;9.150;2024-03-08T03:52:21;35.65;;;23.02;;
41693;SDS011;27377;50.666;9.150;2024-03-08T03:55:05;34.65;;;22.50;;
41693;SDS011;27377;50.666;9.150;2024-03-08T03:57:50;33.72;;;22.48;;
41693;SDS011;27377;50.666;9.150;2024-03-08T04:00:34;36.08;;;23.83;;
41693;SDS011;27377;50.666;9.150;2024-03-08T04:03:18;33.55;;;22.95;;
41693;SDS011;27377;50.666;9.150;2024-03-08T04:06:03;36.63;;;23.40;;
41693;SDS011;27377;50.666;9.150;2024-03-08T04:08:48;36.47;;;23.20;;
41693;SDS011;27377;50.666;9.150;2024-03-08T04:11:32;34.97;;;23.30;;
41693;SDS011;27377;50.666;9.150;2024-03-08T04:14:16;37.85;;;23.70;;
41693;SDS011;27377;50.666;9.150;2024-03-08T04:17:00;38.20;;;23.63;;
41693;SDS011;27377;50.666;9.150;2024-03-08T04:19:44;35.92;;;23.45;;
41693;SDS011;27377;50.666;9.150;2024-03-08T04:22:28;34.20;;;23.03;;
41693;SDS011;27377;50.666;9.150;2024-03-08T04:25:12;37.28;;;23.20;;
41693;SDS011;27377;50.666;9.150;2024-03-08T04:27:56;33.40;;;22.90;;
41693;SDS011;27377;50.666;9.150;2024-03-08T04:30:40;34.65;;;23.40;;
41693;SDS011;27377;50.666;9.150;2024-03-08T04:33:24;37.73;;;24.17;;
41693;SDS011;27377;50.666;9.150;2024-03-08T04:36:08;34.97;;;23.25;;
41693;SDS011;27377;50.666;9.150;2024-03-08T04:38:57;34.90;;;23.08;;
41693;SDS011;27377;50.666;9.150;2024-03-08T04:41:42;35.17;;;23.02;;
41693;SDS011;27377;50.666;9.150;2024-03-08T04:44:27;34.50;;;22.88;;
41693;SDS011;27377;50.666;9.150;2024-03-08T04:47:11;33.75;;;22.10;;
41693;SDS011;27377;50.666;9.150;2024-03-08T04:49:55;34.50;;;22.77;;
41693;SDS011;27377;50.666;9.150;2024-03-08T04:52:41;32.45;;;21.80;;
41693;SDS011;27377;50.666;9.150;2024-03-08T04:55:25;35.15;;;22.15;;
41693;SDS011;27377;50.666;9.150;2024-03-08T04:58:09;35.17;;;22.63;;
41693;SDS011;27377;50.666;9.150;2024-03-08T05:01:00;35.47;;;22.70;;
41693;SDS011;27377;50.666;9.150;2024-03-08T05:03:45;33.40;;;21.95;;
41693;SDS011;27377;50.666;9.150;2024-03-08T05:06:32;34.55;;;22.35;;
41693;SDS011;27377;50.666;9.150;2024-03-08T05:09:17;33.22;;;21.98;;
41693;SDS011;27377;50.666;9.150;2024-03-08T05:12:02;33.13;;;21.97;;
41693;SDS011;27377;50.666;9.150;2024-03-08T05:14:51;35.08;;;21.40;;
41693;SDS011;27377;50.666;9.150;2024-03-08T05:17:35;36.03;;;22.30;;
41693;SDS011;27377;50.666;9.150;2024-03-08T05:20:20;33.38;;;21.45;;
41693;SDS011;27377;50.666;9.150;2024-03-08T05:23:05;33.50;;;21.97;;
41693;SDS011;27377;50.666;9.150;2024-03-08T05:25:50;33.33;;;21.88;;
41693;SDS011;27377;50.666;9.150;2024-03-08T05:28:35;34.07;;;22.40;;
41693;SDS011;27377;50.666;9.150;2024-03-08T05:31:20;32.67;;;22.00;;
41693;SDS011;27377;50.666;9.150;2024-03-08T05:34:07;34.78;;;23.05;;
41693;SDS011;27377;50.666;9.150;2024-03-08T05:36:58;32.87;;;21.87;;
41693;SDS011;27377;50.666;9.150;2024-03-08T05:39:43;36.08;;;22.92;;
41693;SDS011;27377;50.666;9.150;2024-03-08T05:42:28;36.30;;;22.30;;
41693;SDS011;27377;50.666;9.150;2024-03-08T05:45:12;36.10;;;23.55;;
41693;SDS011;27377;50.666;9.150;2024-03-08T05:47:59;37.70;;;23.20;;
41693;SDS011;27377;50.666;9.150;2024-03-08T05:50:46;35.15;;;22.83;;
41693;SDS011;27377;50.666;9.150;2024-03-08T05:53:31;35.67;;;23.67;;
41693;SDS011;27377;50.666;9.150;2024-03-08T05:56:18;35.92;;;22.60;;
41693;SDS011;27377;50.666;9.150;2024-03-08T05:59:04;35.50;;;22.97;;
41693;SDS011;27377;50.666;9.150;2024-03-08T06:01:48;34.22;;;22.85;;
41693;SDS011;27377;50.666;9.150;2024-03-08T06:04:33;34.95;;;22.40;;
41693;SDS011;27377;50.666;9.150;2024-03-08T06:07:17;34.38;;;22.48;;
41693;SDS011;27377;50.666;9.150;2024-03-08T06:10:01;34.22;;;22.88;;
41693;SDS011;27377;50.666;9.150;2024-03-08T06:12:47;36.97;;;23.85;;
41693;SDS011;27377;50.666;9.150;2024-03-08T06:15:31;35.63;;;23.00;;
41693;SDS011;27377;50.666;9.150;2024-03-08T06:18:16;36.65;;;23.38;;
41693;SDS011;27377;50.666;9.150;2024-03-08T06:21:01;38.08;;;23.23;;
41693;SDS011;27377;50.666;9.150;2024-03-08T06:23:45;37.70;;;23.77;;
41693;SDS011;27377;50.666;9.150;2024-03-08T06:26:29;37.55;;;23.77;;
41693;SDS011;27377;50.666;9.150;2024-03-08T06:29:14;34.10;;;22.52;;
41693;SDS011;27377;50.666;9.150;2024-03-08T06:31:59;34.78;;;22.77;;
41693;SDS011;27377;50.666;9.150;2024-03-08T06:34:43;36.95;;;22.95;;
41693;SDS011;27377;50.666;9.150;2024-03-08T06:37:28;37.13;;;22.95;;
41693;SDS011;27377;50.666;9.150;2024-03-08T06:40:12;35.22;;;22.90;;
41693;SDS011;27377;50.666;9.150;2024-03-08T06:42:57;34.70;;;22.85;;
41693;SDS011;27377;50.666;9.150;2024-03-08T06:45:54;35.55;;;23.60;;
41693;SDS011;27377;50.666;9.150;2024-03-08T06:48:38;35.97;;;23.02;;
41693;SDS011;27377;50.666;9.150;2024-03-08T06:51:23;38.45;;;24.23;;
41693;SDS011;27377;50.666;9.150;2024-03-08T06:54:07;35.78;;;23.13;;
41693;SDS011;27377;50.666;9.150;2024-03-08T06:56:52;39.00;;;24.40;;
41693;SDS011;27377;50.666;9.150;2024-03-08T06:59:36;38.63;;;24.77;;
41693;SDS011;27377;50.666;9.150;2024-03-08T07:02:20;38.97;;;25.15;;
41693;SDS011;27377;50.666;9.150;2024-03-08T07:05:08;36.85;;;24.35;;
41693;SDS011;27377;50.666;9.150;2024-03-08T07:07:54;38.80;;;25.33;;
41693;SDS011;27377;50.666;9.150;2024-03-08T07:10:38;40.83;;;25.20;;
41693;SDS011;27377;50.666;9.150;2024-03-08T07:13:25;40.38;;;25.25;;
41693;SDS011;27377;50.666;9.150;2024-03-08T07:16:10;41.78;;;26.30;;
41693;SDS011;27377;50.666;9.150;2024-03-08T07:18:55;49.33;;;31.38;;
41693;SDS011;27377;50.666;9.150;2024-03-08T07:21:43;55.40;;;33.42;;
41693;SDS011;27377;50.666;9.150;2024-03-08T07:24:27;68.47;;;40.83;;
41693;SDS011;27377;50.666;9.150;2024-03-08T07:27:21;59.88;;;35.53;;
41693;SDS011;27377;50.666;9.150;2024-03-08T07:30:05;49.97;;;31.35;;
41693;SDS011;27377;50.666;9.150;2024-03-08T07:32:49;48.53;;;29.90;;
41693;SDS011;27377;50.666;9.150;2024-03-08T07:35:33;45.58;;;28.58;;
41693;SDS011;27377;50.666;9.150;2024-03-08T07:38:20;44.33;;;27.00;;
41693;SDS011;27377;50.666;9.150;2024-03-08T07:41:05;41.28;;;26.02;;
41693;SDS011;27377;50.666;9.150;2024-03-08T07:43:49;40.37;;;26.00;;
41693;SDS011;27377;50.666;9.150;2024-03-08T07:46:33;42.95;;;26.85;;
41693;SDS011;27377;50.666;9.150;2024-03-08T07:49:17;40.85;;;26.52;;
41693;SDS011;27377;50.666;9.150;2024-03-08T07:52:01;41.47;;;26.73;;
41693;SDS011;27377;50.666;9.150;2024-03-08T07:54:48;41.33;;;26.90;;
41693;SDS011;27377;50.666;9.150;2024-03-08T07:57:32;41.00;;;26.88;;
41693;SDS011;27377;50.666;9.150;2024-03-08T08:00:17;40.72;;;25.63;;
41693;SDS011;27377;50.666;9.150;2024-03-08T08:03:02;39.42;;;26.42;;
41693;SDS011;27377;50.666;9.150;2024-03-08T08:05:48;38.67;;;25.10;;
41693;SDS011;27377;50.666;9.150;2024-03-08T08:08:32;39.53;;;25.45;;
41693;SDS011;27377;50.666;9.150;2024-03-08T08:11:16;39.40;;;24.63;;
41693;SDS011;27377;50.666;9.150;2024-03-08T08:14:01;39.55;;;25.73;;
41693;SDS011;27377;50.666;9.150;2024-03-08T08:16:45;38.23;;;24.60;;
41693;SDS011;27377;50.666;9.150;2024-03-08T08:19:29;38.03;;;24.40;;
41693;SDS011;27377;50.666;9.150;2024-03-08T08:22:14;35.38;;;23.15;;
41693;SDS011;27377;50.666;9.150;2024-03-08T08:24:58;35.10;;;23.92;;
41693;SDS011;27377;50.666;9.150;2024-03-08T08:27:42;36.03;;;23.25;;
41693;SDS011;27377;50.666;9.150;2024-03-08T08:30:26;35.60;;;23.38;;
41693;SDS011;27377;50.666;9.150;2024-03-08T08:33:10;34.95;;;22.88;;
41693;SDS011;27377;50.666;9.150;2024-03-08T08:35:54;34.78;;;22.58;;
41693;SDS011;27377;50.666;9.150;2024-03-08T08:38:39;33.88;;;22.25;;
41693;SDS011;27377;50.666;9.150;2024-03-08T08:41:22;35.22;;;22.85;;
41693;SDS011;27377;50.666;9.150;2024-03-08T08:44:07;34.60;;;22.48;;
41693;SDS011;27377;50.666;9.150;2024-03-08T08:46:53;34.72;;;22.60;;
41693;SDS011;27377;50.666;9.150;2024-03-08T08:49:37;32.67;;;21.83;;
41693;SDS011;27377;50.666;9.150;2024-03-08T08:52:21;33.42;;;21.40;;
41693;SDS011;27377;50.666;9.150;2024-03-08T08:55:06;34.73;;;21.17;;
41693;SDS011;27377;50.666;9.150;2024-03-08T08:57:53;33.25;;;21.40;;
41693;SDS011;27377;50.666;9.150;2024-03-08T09:00:37;32.97;;;20.88;;
41693;SDS011;27377;50.666;9.150;2024-03-08T09:03:22;32.72;;;20.73;;
41693;SDS011;27377;50.666;9.150;2024-03-08T09:06:07;31.08;;;20.05;;
41693;SDS011;27377;50.666;9.150;2024-03-08T09:08:53;30.13;;;19.83;;
41693;SDS011;27377;50.666;9.150;2024-03-08T09:11:37;30.95;;;20.25;;
41693;SDS011;27377;50.666;9.150;2024-03-08T09:14:25;32.22;;;20.55;;
41693;SDS011;27377;50.666;9.150;2024-03-08T09:17:09;31.17;;;19.73;;
41693;SDS011;27377;50.666;9.150;2024-03-08T09:19:53;30.93;;;20.03;;
41693;SDS011;27377;50.666;9.150;2024-03-08T09:22:38;28.90;;;19.38;;
41693;SDS011;27377;50.666;9.150;2024-03-08T09:25:23;30.50;;;18.97;;
41693;SDS011;27377;50.666;9.150;2024-03-08T09:28:08;28.83;;;19.10;;
41693;SDS011;27377;50.666;9.150;2024-03-08T09:30:55;28.98;;;19.13;;
41693;SDS011;27377;50.666;9.150;2024-03-08T09:33:39;28.45;;;18.48;;
41693;SDS011;27377;50.666;9.150;2024-03-08T09:36:23;27.77;;;18.40;;
41693;SDS011;27377;50.666;9.150;2024-03-08T09:39:07;29.75;;;18.88;;
41693;SDS011;27377;50.666;9.150;2024-03-08T09:41:51;28.15;;;18.13;;
41693;SDS011;27377;50.666;9.150;2024-03-08T09:44:35;27.88;;;17.70;;
41693;SDS011;27377;50.666;9.150;2024-03-08T09:47:20;28.35;;;17.67;;
41693;SDS011;27377;50.666;9.150;2024-03-08T09:50:08;27.10;;;16.73;;
41693;SDS011;27377;50.666;9.150;2024-03-08T09:52:53;25.92;;;16.77;;
41693;SDS011;27377;50.666;9.150;2024-03-08T09:55:40;27.93;;;17.47;;
41693;SDS011;27377;50.666;9.150;2024-03-08T09:58:27;26.92;;;17.58;;
41693;SDS011;27377;50.666;9.150;2024-03-08T10:01:25;27.13;;;16.88;;
41693;SDS011;27377;50.666;9.150;2024-03-08T10:04:10;26.40;;;17.42;;
41693;SDS011;27377;50.666;9.150;2024-03-08T10:06:55;26.67;;;16.90;;
41693;SDS011;27377;50.666;9.150;2024-03-08T10:09:42;27.50;;;16.95;;
41693;SDS011;27377;50.666;9.150;2024-03-08T10:12:33;25.33;;;16.65;;
41693;SDS011;27377;50.666;9.150;2024-03-08T10:15:18;26.60;;;17.17;;
41693;SDS011;27377;50.666;9.150;2024-03-08T10:18:04;26.20;;;16.77;;
41693;SDS011;27377;50.666;9.150;2024-03-08T10:24:03;25.77;;;17.25;;
41693;SDS011;27377;50.666;9.150;2024-03-08T10:26:48;27.38;;;17.25;;
41693;SDS011;27377;50.666;9.150;2024-03-08T10:29:32;26.23;;;16.05;;
41693;SDS011;27377;50.666;9.150;2024-03-08T10:32:16;25.75;;;16.60;;
41693;SDS011;27377;50.666;9.150;2024-03-08T10:35:00;24.83;;;16.17;;
41693;SDS011;27377;50.666;9.150;2024-03-08T10:37:49;24.08;;;14.82;;
41693;SDS011;27377;50.666;9.150;2024-03-08T10:40:41;24.38;;;15.30;;
41693;SDS011;27377;50.666;9.150;2024-03-08T10:43:25;23.38;;;15.07;;
41693;SDS011;27377;50.666;9.150;2024-03-08T10:46:29;24.60;;;15.75;;
41693;SDS011;27377;50.666;9.150;2024-03-08T10:49:16;24.58;;;15.82;;
41693;SDS011;27377;50.666;9.150;2024-03-08T10:52:02;23.63;;;15.48;;
41693;SDS011;27377;50.666;9.150;2024-03-08T10:54:48;23.67;;;15.23;;
41693;SDS011;27377;50.666;9.150;2024-03-08T10:57:33;25.95;;;15.68;;
41693;SDS011;27377;50.666;9.150;2024-03-08T11:00:19;24.95;;;16.10;;
41693;SDS011;27377;50.666;9.150;2024-03-08T11:03:43;24.00;;;14.98;;
41693;SDS011;27377;50.666;9.150;2024-03-08T11:06:30;23.23;;;15.20;;
41693;SDS011;27377;50.666;9.150;2024-03-08T11:09:27;23.63;;;15.23;;
41693;SDS011;27377;50.666;9.150;2024-03-08T11:15:10;23.08;;;14.85;;
41693;SDS011;27377;50.666;9.150;2024-03-08T11:17:58;24.77;;;16.30;;
41693;SDS011;27377;50.666;9.150;2024-03-08T11:20:43;23.02;;;15.10;;
41693;SDS011;27377;50.666;9.150;2024-03-08T11:23:28;22.38;;;14.77;;
41693;SDS011;27377;50.666;9.150;2024-03-08T11:26:22;24.08;;;14.55;;
41693;SDS011;27377;50.666;9.150;2024-03-08T11:32:11;22.40;;;14.65;;
41693;SDS011;27377;50.666;9.150;2024-03-08T11:35:00;23.48;;;15.20;;
41693;SDS011;27377;50.666;9.150;2024-03-08T11:37:47;22.20;;;14.27;;
41693;SDS011;27377;50.666;9.150;2024-03-08T11:40:32;23.50;;;14.55;;
41693;SDS011;27377;50.666;9.150;2024-03-08T11:43:16;22.10;;;14.18;;
41693;SDS011;27377;50.666;9.150;2024-03-08T11:46:08;22.47;;;14.80;;
41693;SDS011;27377;50.666;9.150;2024-03-08T11:48:53;22.20;;;14.57;;
41693;SDS011;27377;50.666;9.150;2024-03-08T11:51:39;21.52;;;14.35;;
41693;SDS011;27377;50.666;9.150;2024-03-08T11:54:24;23.65;;;14.32;;
41693;SDS011;27377;50.666;9.150;2024-03-08T11:57:09;21.52;;;13.85;;
41693;SDS011;27377;50.666;9.150;2024-03-08T11:59:58;20.40;;;13.50;;
41693;SDS011;27377;50.666;9.150;2024-03-08T12:03:02;20.53;;;13.50;;
41693;SDS011;27377;50.666;9.150;2024-03-08T12:05:56;21.15;;;13.45;;
41693;SDS011;27377;50.666;9.150;2024-03-08T12:08:43;19.35;;;12.88;;
41693;SDS011;27377;50.666;9.150;2024-03-08T12:11:30;20.00;;;13.23;;
41693;SDS011;27377;50.666;9.150;2024-03-08T12:14:15;20.38;;;13.18;;
41693;SDS011;27377;50.666;9.150;2024-03-08T12:16:59;20.88;;;13.48;;
41693;SDS011;27377;50.666;9.150;2024-03-08T12:19:47;19.17;;;13.45;;
41693;SDS011;27377;50.666;9.150;2024-03-08T12:22:32;20.38;;;13.23;;
41693;SDS011;27377;50.666;9.150;2024-03-08T12:25:16;21.98;;;13.95;;
41693;SDS011;27377;50.666;9.150;2024-03-08T12:28:10;21.17;;;13.20;;
41693;SDS011;27377;50.666;9.150;2024-03-08T12:31:00;19.50;;;12.48;;
41693;SDS011;27377;50.666;9.150;2024-03-08T12:33:50;19.05;;;12.82;;
41693;SDS011;27377;50.666;9.150;2024-03-08T12:36:36;19.38;;;12.50;;
41693;SDS011;27377;50.666;9.150;2024-03-08T12:39:21;18.98;;;12.57;;
41693;SDS011;27377;50.666;9.150;2024-03-08T12:42:06;19.63;;;12.80;;
41693;SDS011;27377;50.666;9.150;2024-03-08T12:44:50;20.98;;;13.15;;
41693;SDS011;27377;50.666;9.150;2024-03-08T12:47:34;18.20;;;12.35;;
41693;SDS011;27377;50.666;9.150;2024-03-08T12:50:19;20.10;;;12.95;;
41693;SDS011;27377;50.666;9.150;2024-03-08T12:53:04;20.80;;;13.15;;
41693;SDS011;27377;50.666;9.150;2024-03-08T12:55:48;21.23;;;13.30;;
41693;SDS011;27377;50.666;9.150;2024-03-08T12:58:32;21.23;;;12.80;;
41693;SDS011;27377;50.666;9.150;2024-03-08T13:01:16;20.67;;;13.27;;
41693;SDS011;27377;50.666;9.150;2024-03-08T13:04:01;20.27;;;13.30;;
41693;SDS011;27377;50.666;9.150;2024-03-08T13:06:49;20.58;;;13.15;;
41693;SDS011;27377;50.666;9.150;2024-03-08T13:09:34;20.70;;;13.32;;
41693;SDS011;27377;50.666;9.150;2024-03-08T13:12:21;20.55;;;13.00;;
41693;SDS011;27377;50.666;9.150;2024-03-08T13:15:05;20.30;;;12.97;;
41693;SDS011;27377;50.666;9.150;2024-03-08T13:17:50;20.87;;;13.60;;
41693;SDS011;27377;50.666;9.150;2024-03-08T13:20:33;20.98;;;13.13;;
41693;SDS011;27377;50.666;9.150;2024-03-08T13:23:20;20.38;;;13.40;;
41693;SDS011;27377;50.666;9.150;2024-03-08T13:26:05;20.55;;;13.48;;
41693;SDS011;27377;50.666;9.150;2024-03-08T13:28:55;21.38;;;13.07;;
41693;SDS011;27377;50.666;9.150;2024-03-08T13:31:40;21.60;;;14.18;;
41693;SDS011;27377;50.666;9.150;2024-03-08T13:34:24;21.60;;;14.00;;
41693;SDS011;27377;50.666;9.150;2024-03-08T13:37:13;24.27;;;14.30;;
41693;SDS011;27377;50.666;9.150;2024-03-08T13:39:59;21.77;;;13.70;;
41693;SDS011;27377;50.666;9.150;2024-03-08T13:42:44;20.83;;;14.23;;
41693;SDS011;27377;50.666;9.150;2024-03-08T13:45:28;23.20;;;15.05;;
41693;SDS011;27377;50.666;9.150;2024-03-08T13:48:12;23.73;;;14.43;;
41693;SDS011;27377;50.666;9.150;2024-03-08T13:50:56;23.63;;;14.73;;
41693;SDS011;27377;50.666;9.150;2024-03-08T13:53:40;21.38;;;14.07;;
41693;SDS011;27377;50.666;9.150;2024-03-08T13:56:25;21.50;;;14.35;;
41693;SDS011;27377;50.666;9.150;2024-03-08T13:59:10;24.08;;;15.15;;
41693;SDS011;27377;50.666;9.150;2024-03-08T14:01:53;22.05;;;14.35;;
41693;SDS011;27377;50.666;9.150;2024-03-08T14:04:38;22.40;;;14.82;;
41693;SDS011;27377;50.666;9.150;2024-03-08T14:07:23;22.30;;;14.70;;
41693;SDS011;27377;50.666;9.150;2024-03-08T14:10:07;23.17;;;14.02;;
41693;SDS011;27377;50.666;9.150;2024-03-08T14:12:53;22.70;;;14.15;;
41693;SDS011;27377;50.666;9.150;2024-03-08T14:15:38;23.53;;;14.80;;
41693;SDS011;27377;50.666;9.150;2024-03-08T14:18:26;23.40;;;15.00;;
41693;SDS011;27377;50.666;9.150;2024-03-08T14:21:12;25.83;;;14.70;;
41693;SDS011;27377;50.666;9.150;2024-03-08T14:23:56;21.02;;;14.20;;
41693;SDS011;27377;50.666;9.150;2024-03-08T14:26:40;21.13;;;14.70;;
41693;SDS011;27377;50.666;9.150;2024-03-08T14:29:26;21.40;;;14.65;;
41693;SDS011;27377;50.666;9.150;2024-03-08T14:32:16;23.75;;;14.90;;
41693;SDS011;27377;50.666;9.150;2024-03-08T14:35:03;23.38;;;14.85;;
41693;SDS011;27377;50.666;9.150;2024-03-08T14:37:47;22.05;;;14.35;;
41693;SDS011;27377;50.666;9.150;2024-03-08T14:40:34;20.37;;;13.67;;
41693;SDS011;27377;50.666;9.150;2024-03-08T14:43:20;22.95;;;14.50;;
41693;SDS011;27377;50.666;9.150;2024-03-08T14:46:05;20.23;;;13.67;;
41693;SDS011;27377;50.666;9.150;2024-03-08T14:48:49;21.97;;;13.60;;
41693;SDS011;27377;50.666;9.150;2024-03-08T14:51:36;21.65;;;13.00;;
41693;SDS011;27377;50.666;9.150;2024-03-08T14:54:20;20.52;;;13.68;;
41693;SDS011;27377;50.666;9.150;2024-03-08T14:57:06;20.27;;;13.38;;
41693;SDS011;27377;50.666;9.150;2024-03-08T14:59:50;19.77;;;13.38;;
41693;SDS011;27377;50.666;9.150;2024-03-08T15:02:34;19.92;;;13.05;;
41693;SDS011;27377;50.666;9.150;2024-03-08T15:05:20;18.90;;;12.82;;
41693;SDS011;27377;50.666;9.150;2024-03-08T15:08:10;20.70;;;13.02;;
41693;SDS011;27377;50.666;9.150;2024-03-08T15:10:54;23.50;;;13.68;;
41693;SDS011;27377;50.666;9.150;2024-03-08T15:13:38;21.45;;;13.60;;
41693;SDS011;27377;50.666;9.150;2024-03-08T15:16:25;21.13;;;13.57;;
41693;SDS011;27377;50.666;9.150;2024-03-08T15:19:14;21.23;;;13.60;;
41693;SDS011;27377;50.666;9.150;2024-03-08T15:21:59;20.20;;;13.25;;
41693;SDS011;27377;50.666;9.150;2024-03-08T15:24:45;22.00;;;13.02;;
41693;SDS011;27377;50.666;9.150;2024-03-08T15:27:29;20.77;;;13.02;;
41693;SDS011;27377;50.666;9.150;2024-03-08T15:30:13;18.90;;;12.73;;
41693;SDS011;27377;50.666;9.150;2024-03-08T15:33:00;20.58;;;12.93;;
41693;SDS011;27377;50.666;9.150;2024-03-08T15:35:54;20.83;;;13.20;;
41693;SDS011;27377;50.666;9.150;2024-03-08T15:38:43;19.92;;;13.23;;
41693;SDS011;27377;50.666;9.150;2024-03-08T15:41:30;21.23;;;13.87;;
41693;SDS011;27377;50.666;9.150;2024-03-08T15:44:14;22.20;;;13.10;;
41693;SDS011;27377;50.666;9.150;2024-03-08T15:47:02;20.48;;;13.32;;
41693;SDS011;27377;50.666;9.150;2024-03-08T15:49:47;19.80;;;13.02;;
41693;SDS011;27377;50.666;9.150;2024-03-08T15:52:31;21.73;;;13.93;;
41693;SDS011;27377;50.666;9.150;2024-03-08T15:55:19;21.33;;;13.80;;
41693;SDS011;27377;50.666;9.150;2024-03-08T15:58:06;21.40;;;14.48;;
41693;SDS011;27377;50.666;9.150;2024-03-08T16:00:51;22.60;;;13.73;;
41693;SDS011;27377;50.666;9.150;2024-03-08T16:03:36;21.80;;;13.77;;
41693;SDS011;27377;50.666;9.150;2024-03-08T16:06:23;22.05;;;13.93;;
41693;SDS011;27377;50.666;9.150;2024-03-08T16:09:11;21.35;;;14.07;;
41693;SDS011;27377;50.666;9.150;2024-03-08T16:11:58;23.10;;;14.48;;
41693;SDS011;27377;50.666;9.150;2024-03-08T16:14:42;23.83;;;13.60;;
41693;SDS011;27377;50.666;9.150;2024-03-08T16:17:26;22.20;;;14.65;;